Time;durP1;ratioP1;P1;durP2;ratioP2;P2;SDS_P1;SDS_P2;PMS_P1;PMS_P2;Temp;Humidity;BMP_temperature;BMP_pressure;BME280_temperature;BME280_humidity;BME280_pressure;Samples;Min_cycle;Max_cycle;Signal;HPM_P1;HPM_P2
2024/02/19 00:00:09;;;;;;;;;;;7.30;100.00;;;;;;5007036;28;19929;-69
2024/02/19 00:02:36;;;;;;;;;;;7.30;100.00;;;;;;4989743;28;19929;-69
2024/02/19 00:05:04;;;;;;;;;;;7.30;100.00;;;;;;5006065;28;19948;-68
2024/02/19 00:07:31;;;;;;;;;;;7.30;100.00;;;;;;5006359;28;19929;-68
2024/02/19 00:09:59;;;;;;;;;;;7.30;100.00;;;;;;5006919;28;19960;-68
2024/02/19 00:12:26;;;;;;;;;;;7.30;100.00;;;;;;5006476;28;19929;-68
2024/02/19 00:14:53;;;;;;;;;;;7.30;100.00;;;;;;5006312;28;19961;-69
2024/02/19 00:17:20;;;;;;;;;;;7.30;100.00;;;;;;5006875;28;20429;-69
2024/02/19 00:19:46;;;;;;;;;;;7.30;100.00;;;;;;5006785;28;19930;-68
2024/02/19 00:22:13;;;;;;;;;;;7.30;100.00;;;;;;4942000;28;1882421;-68
2024/02/19 00:24:41;;;;;;;;;;;7.30;100.00;;;;;;5008035;28;19937;-69
2024/02/19 00:27:08;;;;;;;;;;;7.30;100.00;;;;;;5005832;28;19934;-69
2024/02/19 00:29:35;;;;;;;;;;;7.30;100.00;;;;;;5007541;28;19965;-69
2024/02/19 00:32:02;;;;;;;;;;;7.30;100.00;;;;;;5007094;28;20346;-69
2024/02/19 00:34:29;;;;;;;;;;;7.30;100.00;;;;;;5006730;28;19929;-69
2024/02/19 00:36:56;;;;;;;;;;;7.30;100.00;;;;;;4985343;28;19930;-68
2024/02/19 00:39:23;;;;;;;;;;;7.30;100.00;;;;;;5006353;28;20045;-69
2024/02/19 00:41:50;;;;;;;;;;;7.30;100.00;;;;;;5006676;28;19929;-69
2024/02/19 00:44:17;;;;;;;;;;;7.30;100.00;;;;;;5006652;28;20303;-69
2024/02/19 00:46:44;;;;;;;;;;;7.30;100.00;;;;;;4994752;28;19955;-69
2024/02/19 00:49:10;;;;;;;;;;;7.30;100.00;;;;;;5006219;28;19983;-69
2024/02/19 00:51:37;;;;;;;;;;;7.30;100.00;;;;;;5010208;28;19936;-69
2024/02/19 00:54:04;;;;;;;;;;;7.30;100.00;;;;;;4988927;28;19930;-68
2024/02/19 00:56:31;;;;;;;;;;;7.30;100.00;;;;;;4987986;28;20391;-68
2024/02/19 00:58:57;;;;;;;;;;;7.30;100.00;;;;;;5006813;28;20046;-69
2024/02/19 01:01:24;;;;;;;;;;;7.30;100.00;;;;;;5006779;28;19965;-68
2024/02/19 01:03:51;;;;;;;;;;;7.20;100.00;;;;;;5006946;28;20018;-68
2024/02/19 01:06:18;;;;;;;;;;;7.20;100.00;;;;;;5005081;28;20048;-68
2024/02/19 01:08:45;;;;;;;;;;;7.20;100.00;;;;;;5016881;28;20045;-68
2024/02/19 01:11:12;;;;;;;;;;;7.20;100.00;;;;;;4993872;28;20023;-68
2024/02/19 01:13:39;;;;;;;;;;;7.20;100.00;;;;;;5007179;28;19930;-68
2024/02/19 01:16:08;;;;;;;;;;;7.20;100.00;;;;;;5006469;28;19980;-68
2024/02/19 01:18:35;;;;;;;;;;;7.20;100.00;;;;;;4993242;28;19943;-68
2024/02/19 01:21:03;;;;;;;;;;;7.20;100.00;;;;;;5005564;28;20453;-68
2024/02/19 01:23:30;;;;;;;;;;;7.20;100.00;;;;;;5004938;28;20387;-68
2024/02/19 01:25:56;;;;;;;;;;;7.20;100.00;;;;;;4987029;28;19977;-68
2024/02/19 01:28:23;;;;;;;;;;;7.20;100.00;;;;;;5005050;28;19991;-74
2024/02/19 01:30:50;;;;;;;;;;;7.20;100.00;;;;;;4991542;28;20043;-74
2024/02/19 01:33:17;;;;;;;;;;;7.20;100.00;;;;;;5006562;28;19941;-74
2024/02/19 01:35:44;;;;;;;;;;;7.20;100.00;;;;;;4989401;28;20048;-75
2024/02/19 01:38:11;;;;;;;;;;;7.20;100.00;;;;;;5009576;28;19933;-74
2024/02/19 01:40:38;;;;;;;;;;;7.20;100.00;;;;;;5007473;28;20728;-75
2024/02/19 01:43:06;;;;;;;;;;;7.20;100.00;;;;;;5006059;28;20042;-75
2024/02/19 01:45:33;;;;;;;;;;;7.10;100.00;;;;;;5005065;28;19930;-74
2024/02/19 01:48:01;;;;;;;;;;;7.10;100.00;;;;;;4990584;28;20374;-74
2024/02/19 01:50:31;;;;;;;;;;;7.10;100.00;;;;;;5007205;28;19930;-74
2024/02/19 01:53:01;;;;;;;;;;;7.10;100.00;;;;;;4988432;28;19944;-75
2024/02/19 01:55:28;;;;;;;;;;;7.10;100.00;;;;;;5015062;28;19929;-75
2024/02/19 01:57:55;;;;;;;;;;;7.00;100.00;;;;;;4992525;28;19956;-74
2024/02/19 02:00:22;;;;;;;;;;;7.00;100.00;;;;;;5003326;28;20294;-74
2024/02/19 02:02:49;;;;;;;;;;;7.00;100.00;;;;;;5006235;28;20473;-75
2024/02/19 02:05:16;;;;;;;;;;;7.00;100.00;;;;;;5008864;28;20028;-74
2024/02/19 02:07:44;;;;;;;;;;;6.90;100.00;;;;;;5010161;28;19965;-74
2024/02/19 02:10:11;;;;;;;;;;;6.90;100.00;;;;;;5001370;28;19930;-75
2024/02/19 02:12:37;;;;;;;;;;;6.90;100.00;;;;;;5005916;28;19933;-74
2024/02/19 02:15:04;;;;;;;;;;;6.90;100.00;;;;;;5005695;28;20434;-75
2024/02/19 02:17:31;;;;;;;;;;;6.80;100.00;;;;;;5006267;28;19976;-69
2024/02/19 02:19:58;;;;;;;;;;;6.80;100.00;;;;;;5005052;28;19929;-68
2024/02/19 02:22:25;;;;;;;;;;;6.80;100.00;;;;;;5005535;28;19944;-68
2024/02/19 02:24:52;;;;;;;;;;;6.80;100.00;;;;;;5009248;28;20318;-68
2024/02/19 02:27:19;;;;;;;;;;;6.70;100.00;;;;;;5005489;28;19936;-68
2024/02/19 02:29:46;;;;;;;;;;;6.70;100.00;;;;;;5005456;28;19979;-68
2024/02/19 02:32:13;;;;;;;;;;;6.70;100.00;;;;;;4986289;28;19930;-68
2024/02/19 02:34:39;;;;;;;;;;;6.70;100.00;;;;;;5005041;28;19933;-68
2024/02/19 02:37:06;;;;;;;;;;;6.70;100.00;;;;;;5005385;28;19995;-68
2024/02/19 02:39:33;;;;;;;;;;;6.70;100.00;;;;;;4988122;28;20682;-68
2024/02/19 02:42:00;;;;;;;;;;;6.70;100.00;;;;;;5003869;28;20393;-68
2024/02/19 02:44:27;;;;;;;;;;;6.70;100.00;;;;;;5005652;28;20616;-68
2024/02/19 02:46:54;;;;;;;;;;;6.70;100.00;;;;;;5005474;28;19995;-68
2024/02/19 02:49:20;;;;;;;;;;;6.70;100.00;;;;;;5005122;28;20020;-68
2024/02/19 02:51:47;;;;;;;;;;;6.60;100.00;;;;;;5005363;28;19929;-68
2024/02/19 02:54:14;;;;;;;;;;;6.70;100.00;;;;;;5009606;28;19936;-68
2024/02/19 02:56:41;;;;;;;;;;;6.60;100.00;;;;;;4987569;28;20453;-68
2024/02/19 02:59:07;;;;;;;;;;;6.70;100.00;;;;;;5006805;28;20547;-68
2024/02/19 03:01:34;;;;;;;;;;;6.70;100.00;;;;;;5007846;28;19925;-68
2024/02/19 03:04:01;;;;;;;;;;;6.70;100.00;;;;;;4991300;28;20274;-68
2024/02/19 03:06:28;;;;;;;;;;;6.70;100.00;;;;;;5008355;28;20015;-68
2024/02/19 03:08:55;;;;;;;;;;;6.60;100.00;;;;;;5008757;28;20027;-68
2024/02/19 03:11:21;;;;;;;;;;;6.60;100.00;;;;;;5008355;28;19937;-68
2024/02/19 03:13:49;;;;;;;;;;;6.60;100.00;;;;;;5008817;28;20361;-68
2024/02/19 03:16:17;;;;;;;;;;;6.60;100.00;;;;;;5008931;28;19956;-68
2024/02/19 03:18:45;;;;;;;;;;;6.60;100.00;;;;;;5007962;28;19933;-68
2024/02/19 03:21:12;;;;;;;;;;;6.60;100.00;;;;;;5009416;28;19929;-68
2024/02/19 03:23:46;;;;;;;;;;;6.60;100.00;;;;;;5008644;28;19929;-68
2024/02/19 03:26:12;;;;;;;;;;;6.60;100.00;;;;;;5008088;28;19940;-68
2024/02/19 03:28:39;;;;;;;;;;;6.60;100.00;;;;;;5007127;28;20023;-68
2024/02/19 03:31:06;;;;;;;;;;;6.50;100.00;;;;;;4996244;28;20311;-68
2024/02/19 03:33:33;;;;;;;;;;;6.60;100.00;;;;;;5005785;28;19944;-68
2024/02/19 03:36:00;;;;;;;;;;;6.60;100.00;;;;;;5008489;28;20007;-69
2024/02/19 03:38:27;;;;;;;;;;;6.60;100.00;;;;;;5008229;28;19984;-68
2024/02/19 03:40:54;;;;;;;;;;;6.60;100.00;;;;;;5003597;28;20020;-69
2024/02/19 03:43:20;;;;;;;;;;;6.60;100.00;;;;;;5006502;28;19984;-68
2024/02/19 03:45:50;;;;;;;;;;;6.60;100.00;;;;;;5008617;28;19984;-68
2024/02/19 03:48:17;;;;;;;;;;;6.60;100.00;;;;;;4996445;28;19941;-68
2024/02/19 03:50:44;;;;;;;;;;;6.60;100.00;;;;;;5007441;28;19929;-68
2024/02/19 03:53:10;;;;;;;;;;;6.60;100.00;;;;;;5007713;28;19964;-68
2024/02/19 03:55:37;;;;;;;;;;;6.60;100.00;;;;;;5007049;28;19937;-69
2024/02/19 03:58:04;;;;;;;;;;;6.60;100.00;;;;;;5007857;28;19972;-69
2024/02/19 04:00:30;;;;;;;;;;;6.60;100.00;;;;;;5006622;28;19961;-68
2024/02/19 04:02:57;;;;;;;;;;;6.60;100.00;;;;;;5006762;28;19937;-69
2024/02/19 04:05:24;;;;;;;;;;;6.60;100.00;;;;;;5007528;28;19984;-68
2024/02/19 04:07:50;;;;;;;;;;;6.60;100.00;;;;;;5007535;28;20004;-69
2024/02/19 04:10:17;;;;;;;;;;;6.60;100.00;;;;;;5006936;28;19972;-69
2024/02/19 04:12:44;;;;;;;;;;;6.60;100.00;;;;;;5007237;28;19930;-68
2024/02/19 04:15:11;;;;;;;;;;;6.60;100.00;;;;;;5013134;28;19940;-69
2024/02/19 04:17:38;;;;;;;;;;;6.60;100.00;;;;;;5006945;28;19972;-69
2024/02/19 04:20:05;;;;;;;;;;;6.60;100.00;;;;;;5006174;28;20043;-69
2024/02/19 04:22:32;;;;;;;;;;;6.60;100.00;;;;;;4993536;28;19925;-69
2024/02/19 04:24:59;;;;;;;;;;;6.60;100.00;;;;;;5007435;28;20028;-68
2024/02/19 04:27:25;;;;;;;;;;;6.60;100.00;;;;;;5006972;28;19936;-69
2024/02/19 04:29:52;;;;;;;;;;;6.60;100.00;;;;;;4989647;28;19933;-69
2024/02/19 04:32:19;;;;;;;;;;;6.50;100.00;;;;;;5007249;28;20007;-69
2024/02/19 04:34:45;;;;;;;;;;;6.50;100.00;;;;;;5006769;28;20039;-68
2024/02/19 04:37:14;;;;;;;;;;;6.50;100.00;;;;;;5007194;28;20019;-68
2024/02/19 04:39:41;;;;;;;;;;;6.50;100.00;;;;;;5005822;28;20513;-68
2024/02/19 04:42:08;;;;;;;;;;;6.40;100.00;;;;;;5006773;28;19930;-68
2024/02/19 04:44:35;;;;;;;;;;;6.30;100.00;;;;;;5007079;28;19999;-68
2024/02/19 04:47:01;;;;;;;;;;;6.20;100.00;;;;;;5007362;28;19933;-68
2024/02/19 04:49:28;;;;;;;;;;;6.10;100.00;;;;;;4990204;28;19930;-68
2024/02/19 04:51:55;;;;;;;;;;;6.10;100.00;;;;;;5006920;28;19929;-68
2024/02/19 04:54:22;;;;;;;;;;;6.10;100.00;;;;;;5007664;28;20020;-69
2024/02/19 04:56:48;;;;;;;;;;;6.00;100.00;;;;;;4998451;28;19929;-69
2024/02/19 04:59:15;;;;;;;;;;;6.00;100.00;;;;;;5006213;28;20550;-70
2024/02/19 05:01:42;;;;;;;;;;;5.90;100.00;;;;;;5006018;28;20018;-69
2024/02/19 05:04:09;;;;;;;;;;;5.90;100.00;;;;;;5006530;28;20076;-69
2024/02/19 05:06:36;;;;;;;;;;;5.80;100.00;;;;;;5004249;28;19937;-69
2024/02/19 05:09:03;;;;;;;;;;;5.80;100.00;;;;;;5004935;28;19936;-69
2024/02/19 05:11:30;;;;;;;;;;;5.80;100.00;;;;;;5003700;28;20069;-69
2024/02/19 05:13:57;;;;;;;;;;;5.80;100.00;;;;;;5004349;28;20032;-69
2024/02/19 05:16:23;;;;;;;;;;;5.70;100.00;;;;;;4986617;28;19973;-69
2024/02/19 05:18:50;;;;;;;;;;;5.70;100.00;;;;;;5004256;28;19934;-69
2024/02/19 05:21:18;;;;;;;;;;;5.70;100.00;;;;;;4983250;28;19933;-69
2024/02/19 05:23:44;;;;;;;;;;;5.70;100.00;;;;;;5005126;28;19991;-69
2024/02/19 05:26:11;;;;;;;;;;;5.70;100.00;;;;;;5006465;28;19933;-69
2024/02/19 05:28:38;;;;;;;;;;;5.70;100.00;;;;;;5006440;28;19972;-69
2024/02/19 05:31:05;;;;;;;;;;;5.70;100.00;;;;;;5005586;28;19926;-69
2024/02/19 05:33:32;;;;;;;;;;;5.70;100.00;;;;;;4993188;28;20027;-69
2024/02/19 05:35:59;;;;;;;;;;;5.70;100.00;;;;;;5006321;28;20404;-69
2024/02/19 05:38:26;;;;;;;;;;;5.60;100.00;;;;;;5006350;28;20382;-69
2024/02/19 05:40:52;;;;;;;;;;;5.60;100.00;;;;;;5006628;28;19929;-75
2024/02/19 05:43:19;;;;;;;;;;;5.60;100.00;;;;;;5006181;28;19972;-75
2024/02/19 05:45:49;;;;;;;;;;;5.60;100.00;;;;;;5007542;28;19939;-75
2024/02/19 05:48:16;;;;;;;;;;;5.60;100.00;;;;;;5003554;28;19930;-69
2024/02/19 05:50:43;;;;;;;;;;;5.50;100.00;;;;;;4987945;28;20302;-69
2024/02/19 05:53:10;;;;;;;;;;;5.50;100.00;;;;;;4991574;28;19930;-69
2024/02/19 05:55:36;;;;;;;;;;;5.50;100.00;;;;;;5005749;28;20433;-69
2024/02/19 05:58:03;;;;;;;;;;;5.50;100.00;;;;;;5005731;28;20012;-69
2024/02/19 06:00:30;;;;;;;;;;;5.50;100.00;;;;;;5005601;28;19930;-70
2024/02/19 06:03:03;;;;;;;;;;;5.40;100.00;;;;;;5005746;28;19937;-68
2024/02/19 06:05:29;;;;;;;;;;;5.50;100.00;;;;;;5005885;28;19933;-69
2024/02/19 06:07:56;;;;;;;;;;;5.40;100.00;;;;;;4988447;28;19949;-68
2024/02/19 06:10:23;;;;;;;;;;;5.40;100.00;;;;;;5005086;28;19980;-68
2024/02/19 06:12:50;;;;;;;;;;;5.40;100.00;;;;;;5005140;28;19929;-74
2024/02/19 06:15:17;;;;;;;;;;;5.40;100.00;;;;;;5005056;28;19961;-74
2024/02/19 06:17:44;;;;;;;;;;;5.40;100.00;;;;;;5004300;28;19981;-74
2024/02/19 06:20:11;;;;;;;;;;;5.40;100.00;;;;;;5007373;28;19929;-74
2024/02/19 06:22:37;;;;;;;;;;;5.30;100.00;;;;;;5005478;28;19929;-72
2024/02/19 06:25:04;;;;;;;;;;;5.30;100.00;;;;;;5005090;28;19929;-73
2024/02/19 06:27:31;;;;;;;;;;;5.20;100.00;;;;;;5004593;28;19929;-73
2024/02/19 06:29:57;;;;;;;;;;;5.20;100.00;;;;;;5015149;28;20414;-76
2024/02/19 06:32:24;;;;;;;;;;;5.10;100.00;;;;;;4998619;28;20738;-76
2024/02/19 06:34:51;;;;;;;;;;;5.10;100.00;;;;;;5004893;28;19934;-77
2024/02/19 06:37:18;;;;;;;;;;;5.10;100.00;;;;;;4999666;28;19929;-76
2024/02/19 06:39:45;;;;;;;;;;;5.00;100.00;;;;;;5024295;28;20314;-77
2024/02/19 06:42:12;;;;;;;;;;;5.00;100.00;;;;;;5022859;28;20640;-77
2024/02/19 06:44:39;;;;;;;;;;;4.90;100.00;;;;;;5026357;28;19933;-77
2024/02/19 06:47:05;;;;;;;;;;;4.90;100.00;;;;;;5020553;28;20405;-77
2024/02/19 06:49:32;;;;;;;;;;;4.80;100.00;;;;;;5008329;28;20365;-77
2024/02/19 06:51:59;;;;;;;;;;;4.80;100.00;;;;;;5021148;28;20403;-77
2024/02/19 06:54:26;;;;;;;;;;;4.80;100.00;;;;;;4998244;28;20036;-77
2024/02/19 06:56:57;;;;;;;;;;;4.70;100.00;;;;;;5019647;28;20563;-77
2024/02/19 06:59:24;;;;;;;;;;;4.70;100.00;;;;;;5019867;28;20643;-77
2024/02/19 07:01:51;;;;;;;;;;;4.70;100.00;;;;;;5009130;28;19929;-77
2024/02/19 07:04:20;;;;;;;;;;;4.70;100.00;;;;;;5004565;28;19956;-78
2024/02/19 07:06:47;;;;;;;;;;;4.60;100.00;;;;;;5005065;28;19929;-77
2024/02/19 07:09:14;;;;;;;;;;;4.60;100.00;;;;;;4991556;28;20393;-77
2024/02/19 07:11:41;;;;;;;;;;;4.60;100.00;;;;;;5008463;28;19937;-77
2024/02/19 07:14:08;;;;;;;;;;;4.60;100.00;;;;;;5005964;28;20030;-77
2024/02/19 07:16:35;;;;;;;;;;;4.50;100.00;;;;;;5005897;28;20067;-77
2024/02/19 07:19:01;;;;;;;;;;;4.60;100.00;;;;;;5015831;28;19930;-77
2024/02/19 07:21:28;;;;;;;;;;;4.50;100.00;;;;;;5007192;28;19929;-78
2024/02/19 07:23:55;;;;;;;;;;;4.50;100.00;;;;;;5004657;28;20048;-78
2024/02/19 07:26:22;;;;;;;;;;;4.50;100.00;;;;;;5003842;28;20016;-77
2024/02/19 07:28:48;;;;;;;;;;;4.50;100.00;;;;;;5020607;28;19929;-76
2024/02/19 07:31:15;;;;;;;;;;;4.40;100.00;;;;;;5025732;28;19929;-76
2024/02/19 07:33:42;;;;;;;;;;;4.40;100.00;;;;;;5005116;28;19999;-77
2024/02/19 07:36:09;;;;;;;;;;;4.40;100.00;;;;;;5005509;28;19999;-77
2024/02/19 07:38:36;;;;;;;;;;;4.40;100.00;;;;;;5012086;28;19969;-77
2024/02/19 07:41:03;;;;;;;;;;;4.50;100.00;;;;;;5007051;28;20019;-77
2024/02/19 07:43:30;;;;;;;;;;;4.40;100.00;;;;;;5002167;28;20503;-77
2024/02/19 07:45:56;;;;;;;;;;;4.40;100.00;;;;;;4997370;28;19952;-77
2024/02/19 07:48:23;;;;;;;;;;;4.40;100.00;;;;;;5000335;28;19930;-77
2024/02/19 07:50:50;;;;;;;;;;;4.50;100.00;;;;;;5008673;28;19972;-77
2024/02/19 07:53:17;;;;;;;;;;;4.50;100.00;;;;;;5007568;28;20667;-77
2024/02/19 07:55:43;;;;;;;;;;;4.50;100.00;;;;;;5010433;28;19944;-77
2024/02/19 07:58:10;;;;;;;;;;;4.50;100.00;;;;;;5027045;28;19929;-77
2024/02/19 08:00:37;;;;;;;;;;;4.50;100.00;;;;;;5026537;28;20015;-77
2024/02/19 08:03:04;;;;;;;;;;;4.50;100.00;;;;;;5008174;28;19971;-77
2024/02/19 08:05:31;;;;;;;;;;;4.50;100.00;;;;;;5014327;28;20667;-77
2024/02/19 08:07:58;;;;;;;;;;;4.50;100.00;;;;;;4997528;28;20637;-77
2024/02/19 08:10:25;;;;;;;;;;;4.50;100.00;;;;;;5011730;28;20298;-77
2024/02/19 08:12:51;;;;;;;;;;;4.50;100.00;;;;;;5017671;28;20373;-77
2024/02/19 08:15:18;;;;;;;;;;;4.60;100.00;;;;;;5010195;28;19929;-77
2024/02/19 08:17:45;;;;;;;;;;;4.60;100.00;;;;;;5027220;28;20002;-77
2024/02/19 08:20:12;;;;;;;;;;;4.60;100.00;;;;;;5027710;28;19976;-77
2024/02/19 08:22:39;;;;;;;;;;;4.60;100.00;;;;;;5018926;28;19956;-77
2024/02/19 08:25:08;;;;;;;;;;;4.60;100.00;;;;;;5019932;28;20374;-77
2024/02/19 08:27:35;;;;;;;;;;;4.60;100.00;;;;;;5023061;28;19929;-76
2024/02/19 08:30:02;;;;;;;;;;;4.60;100.00;;;;;;5008163;28;19972;-76
2024/02/19 08:32:29;;;;;;;;;;;4.60;100.00;;;;;;5013485;28;19933;-76
2024/02/19 08:34:56;;;;;;;;;;;4.60;100.00;;;;;;4999809;28;19955;-77
2024/02/19 08:37:22;;;;;;;;;;;4.60;100.00;;;;;;5007322;28;20047;-77
2024/02/19 08:39:49;;;;;;;;;;;4.60;100.00;;;;;;5007209;28;20278;-76
2024/02/19 08:42:16;;;;;;;;;;;4.60;100.00;;;;;;4999584;28;19930;-76
2024/02/19 08:44:43;;;;;;;;;;;4.60;100.00;;;;;;5006867;28;19980;-76
2024/02/19 08:47:09;;;;;;;;;;;4.60;100.00;;;;;;5007330;28;19926;-76
2024/02/19 08:49:37;;;;;;;;;;;4.60;100.00;;;;;;4994230;28;20016;-76
2024/02/19 08:52:04;;;;;;;;;;;4.60;100.00;;;;;;5009664;28;19976;-76
2024/02/19 08:54:31;;;;;;;;;;;4.60;100.00;;;;;;5023630;28;19933;-76
2024/02/19 08:56:58;;;;;;;;;;;4.70;100.00;;;;;;5024339;28;19933;-76
2024/02/19 08:59:25;;;;;;;;;;;4.70;100.00;;;;;;5022612;28;20635;-76
2024/02/19 09:01:52;;;;;;;;;;;4.70;100.00;;;;;;5025005;28;20416;-76
2024/02/19 09:04:20;;;;;;;;;;;4.70;100.00;;;;;;5010105;28;19926;-76
2024/02/19 09:06:47;;;;;;;;;;;4.70;100.00;;;;;;5024141;28;20502;-76
2024/02/19 09:09:13;;;;;;;;;;;4.60;100.00;;;;;;5021087;28;19929;-76
2024/02/19 09:11:40;;;;;;;;;;;4.70;100.00;;;;;;5018783;28;20054;-76
2024/02/19 09:14:07;;;;;;;;;;;4.70;100.00;;;;;;5006969;28;19925;-76
2024/02/19 09:16:34;;;;;;;;;;;4.70;100.00;;;;;;5026766;28;20024;-76
2024/02/19 09:19:05;;;;;;;;;;;4.70;100.00;;;;;;5036999;28;20475;-75
2024/02/19 09:21:32;;;;;;;;;;;4.80;100.00;;;;;;5004732;28;20423;-76
2024/02/19 09:23:59;;;;;;;;;;;4.80;100.00;;;;;;5014336;28;20341;-75
2024/02/19 09:26:25;;;;;;;;;;;4.80;100.00;;;;;;5025138;28;19928;-76
2024/02/19 09:28:52;;;;;;;;;;;4.80;100.00;;;;;;5020505;28;19972;-76
2024/02/19 09:31:23;;;;;;;;;;;4.90;100.00;;;;;;5009277;28;19929;-76
2024/02/19 09:33:50;;;;;;;;;;;4.90;100.00;;;;;;5012715;28;19929;-76
2024/02/19 09:36:17;;;;;;;;;;;5.00;100.00;;;;;;5040984;28;19933;-76
2024/02/19 09:38:45;;;;;;;;;;;5.00;100.00;;;;;;5017977;28;19934;-76
2024/02/19 09:41:12;;;;;;;;;;;5.00;100.00;;;;;;5008764;28;19961;-76
2024/02/19 09:43:39;;;;;;;;;;;5.00;100.00;;;;;;5005384;28;20208;-76
2024/02/19 09:46:13;;;;;;;;;;;5.10;100.00;;;;;;5017648;28;19929;-76
2024/02/19 09:48:41;;;;;;;;;;;5.10;100.00;;;;;;5012682;28;20342;-76
2024/02/19 09:51:11;;;;;;;;;;;5.20;100.00;;;;;;5008323;28;19936;-75
2024/02/19 09:53:43;;;;;;;;;;;5.20;100.00;;;;;;5008186;28;20445;-75
2024/02/19 09:56:13;;;;;;;;;;;5.20;100.00;;;;;;5004832;28;19929;-75
2024/02/19 09:58:40;;;;;;;;;;;5.20;100.00;;;;;;5019111;28;20035;-75
2024/02/19 10:01:07;;;;;;;;;;;5.20;100.00;;;;;;5020945;28;19935;-76
2024/02/19 10:03:34;;;;;;;;;;;5.20;100.00;;;;;;5005869;28;19936;-76
2024/02/19 10:06:02;;;;;;;;;;;5.30;100.00;;;;;;4990439;28;19929;-76
2024/02/19 10:08:30;;;;;;;;;;;5.30;100.00;;;;;;5014982;28;20362;-76
2024/02/19 10:10:57;;;;;;;;;;;5.40;100.00;;;;;;5003729;28;20027;-76
2024/02/19 10:13:24;;;;;;;;;;;5.40;100.00;;;;;;5006965;28;20339;-76
2024/02/19 10:15:51;;;;;;;;;;;5.50;100.00;;;;;;5023450;28;20015;-76
2024/02/19 10:18:19;;;;;;;;;;;5.50;100.00;;;;;;5025188;28;19929;-76
2024/02/19 10:20:50;;;;;;;;;;;5.60;100.00;;;;;;5022166;28;19929;-76
2024/02/19 10:23:19;;;;;;;;;;;5.60;100.00;;;;;;5004837;28;20604;-76
2024/02/19 10:25:49;;;;;;;;;;;5.60;100.00;;;;;;5025534;28;19929;-76
2024/02/19 10:28:18;;;;;;;;;;;5.80;100.00;;;;;;5006817;28;20016;-76
2024/02/19 10:30:45;;;;;;;;;;;5.80;100.00;;;;;;5013211;28;19929;-75
2024/02/19 10:33:11;;;;;;;;;;;5.90;100.00;;;;;;5007408;28;19935;-76
2024/02/19 10:35:38;;;;;;;;;;;5.90;100.00;;;;;;5015527;28;19996;-76
2024/02/19 10:38:05;;;;;;;;;;;5.90;100.00;;;;;;4995977;28;19983;-76
2024/02/19 10:40:32;;;;;;;;;;;5.90;100.00;;;;;;5024156;28;19933;-76
2024/02/19 10:42:59;;;;;;;;;;;5.90;100.00;;;;;;5036196;28;19929;-76
2024/02/19 10:45:26;;;;;;;;;;;6.00;100.00;;;;;;5006957;28;19941;-76
2024/02/19 10:47:56;;;;;;;;;;;6.00;100.00;;;;;;5005788;28;20569;-76
2024/02/19 10:50:23;;;;;;;;;;;6.00;100.00;;;;;;5005445;28;20008;-76
2024/02/19 10:52:51;;;;;;;;;;;6.10;100.00;;;;;;5027530;28;19932;-76
2024/02/19 10:55:22;;;;;;;;;;;6.10;100.00;;;;;;5015390;28;19965;-76
2024/02/19 10:58:12;;;;;;;;;;;6.20;100.00;;;;;;5011673;28;20421;-75
2024/02/19 11:00:38;;;;;;;;;;;6.30;100.00;;;;;;5004443;28;20177;-76
2024/02/19 11:03:07;;;;;;;;;;;6.30;100.00;;;;;;5012492;28;20448;-75
2024/02/19 11:05:38;;;;;;;;;;;6.40;100.00;;;;;;5023822;28;19936;-75
2024/02/19 11:08:05;;;;;;;;;;;6.40;100.00;;;;;;5021559;28;19948;-75
2024/02/19 11:10:41;;;;;;;;;;;6.50;100.00;;;;;;5015095;28;20043;-76
2024/02/19 11:13:08;;;;;;;;;;;6.50;100.00;;;;;;4992344;28;19929;-75
2024/02/19 11:15:40;;;;;;;;;;;6.60;100.00;;;;;;5006630;28;20029;-75
2024/02/19 11:18:07;;;;;;;;;;;6.60;100.00;;;;;;5021250;28;20006;-75
2024/02/19 11:20:34;;;;;;;;;;;6.60;100.00;;;;;;5023171;28;19964;-75
2024/02/19 11:23:01;;;;;;;;;;;6.70;100.00;;;;;;5019051;28;19937;-75
2024/02/19 11:25:27;;;;;;;;;;;6.80;100.00;;;;;;5010990;28;20349;-75
2024/02/19 11:27:54;;;;;;;;;;;6.80;100.00;;;;;;5011658;28;20446;-76
2024/02/19 11:30:21;;;;;;;;;;;6.70;100.00;;;;;;5007491;28;19992;-76
2024/02/19 11:32:57;;;;;;;;;;;6.70;100.00;;;;;;5004992;28;20020;-76
2024/02/19 11:35:24;;;;;;;;;;;6.60;100.00;;;;;;5018685;28;20390;-76
2024/02/19 11:37:51;;;;;;;;;;;6.60;100.00;;;;;;5002917;28;20783;-76
2024/02/19 11:40:18;;;;;;;;;;;6.60;100.00;;;;;;5022159;28;20036;-76
2024/02/19 11:42:48;;;;;;;;;;;6.60;100.00;;;;;;5015402;28;19929;-76
2024/02/19 11:45:16;;;;;;;;;;;6.50;100.00;;;;;;5017638;28;19929;-76
2024/02/19 11:47:43;;;;;;;;;;;6.60;100.00;;;;;;5023268;28;19934;-76
2024/02/19 11:50:15;;;;;;;;;;;6.60;100.00;;;;;;5007541;28;19926;-75
2024/02/19 11:52:45;;;;;;;;;;;6.60;100.00;;;;;;5021061;28;19935;-75
2024/02/19 11:55:22;;;;;;;;;;;6.70;100.00;;;;;;5033369;28;20493;-75
2024/02/19 11:57:50;;;;;;;;;;;6.70;100.00;;;;;;5008422;28;19929;-75
2024/02/19 12:00:17;;;;;;;;;;;6.80;100.00;;;;;;5007539;28;19933;-74
2024/02/19 12:02:53;;;;;;;;;;;6.80;100.00;;;;;;5013908;28;20007;-74
2024/02/19 12:05:20;;;;;;;;;;;6.90;100.00;;;;;;5010066;28;20684;-75
2024/02/19 12:07:47;;;;;;;;;;;6.90;100.00;;;;;;5022429;28;19937;-75
2024/02/19 12:10:15;;;;;;;;;;;7.00;100.00;;;;;;5027009;28;20573;-75
2024/02/19 12:12:43;;;;;;;;;;;7.10;100.00;;;;;;5008335;28;19930;-75
2024/02/19 12:15:11;;;;;;;;;;;7.20;100.00;;;;;;5009277;28;19939;-75
2024/02/19 12:17:41;;;;;;;;;;;7.20;100.00;;;;;;5026921;28;19952;-75
2024/02/19 12:20:11;;;;;;;;;;;7.20;100.00;;;;;;5023171;28;20021;-75
2024/02/19 12:22:40;;;;;;;;;;;7.30;100.00;;;;;;5009463;28;20529;-75
2024/02/19 12:25:07;;;;;;;;;;;7.30;100.00;;;;;;5000263;28;19929;-75
2024/02/19 12:27:34;;;;;;;;;;;7.60;100.00;;;;;;5026543;28;19929;-75
2024/02/19 12:30:02;;;;;;;;;;;7.70;100.00;;;;;;5026337;28;20034;-75
2024/02/19 12:32:29;;;;;;;;;;;7.80;100.00;;;;;;4992427;28;19930;-75
2024/02/19 12:34:55;;;;;;;;;;;7.90;100.00;;;;;;5017588;28;20025;-76
2024/02/19 12:37:23;;;;;;;;;;;8.00;100.00;;;;;;5006475;28;19969;-75
2024/02/19 12:39:49;;;;;;;;;;;8.10;100.00;;;;;;5011810;28;19936;-75
2024/02/19 12:42:16;;;;;;;;;;;8.00;100.00;;;;;;5025332;28;19929;-75
2024/02/19 12:44:43;;;;;;;;;;;8.10;100.00;;;;;;5026201;28;19940;-71
2024/02/19 12:47:10;;;;;;;;;;;8.10;100.00;;;;;;5026983;28;19932;-71
2024/02/19 12:49:37;;;;;;;;;;;8.20;100.00;;;;;;5018127;28;20000;-71
2024/02/19 12:52:08;;;;;;;;;;;8.30;100.00;;;;;;5020130;28;20433;-71
2024/02/19 12:54:35;;;;;;;;;;;8.50;100.00;;;;;;5017874;28;20013;-71
2024/02/19 12:57:02;;;;;;;;;;;8.60;100.00;;;;;;5023338;28;20376;-71
2024/02/19 12:59:28;;;;;;;;;;;8.60;100.00;;;;;;5023672;28;19976;-70
2024/02/19 13:01:55;;;;;;;;;;;8.70;100.00;;;;;;5025960;28;20704;-71
2024/02/19 13:04:22;;;;;;;;;;;8.80;100.00;;;;;;5022849;28;20027;-70
2024/02/19 13:06:55;;;;;;;;;;;8.80;100.00;;;;;;5008045;28;20715;-70
2024/02/19 13:09:24;;;;;;;;;;;8.80;100.00;;;;;;5021579;28;19929;-70
2024/02/19 13:11:51;;;;;;;;;;;8.70;100.00;;;;;;5017717;28;19939;-71
2024/02/19 13:14:18;;;;;;;;;;;8.70;100.00;;;;;;5023271;28;20031;-69
2024/02/19 13:16:45;;;;;;;;;;;8.80;100.00;;;;;;5011315;28;19998;-68
2024/02/19 13:19:20;;;;;;;;;;;9.00;100.00;;;;;;5021604;28;19929;-67
2024/02/19 13:21:47;;;;;;;;;;;9.20;100.00;;;;;;5031672;28;19929;-67
2024/02/19 13:24:14;;;;;;;;;;;9.30;100.00;;;;;;5021258;28;19933;-67
2024/02/19 13:26:40;;;;;;;;;;;9.50;100.00;;;;;;5008813;28;19933;-67
2024/02/19 13:29:07;;;;;;;;;;;9.50;100.00;;;;;;5012542;28;20022;-67
2024/02/19 13:31:39;;;;;;;;;;;9.60;100.00;;;;;;5026264;28;20022;-67
2024/02/19 13:34:09;;;;;;;;;;;9.50;100.00;;;;;;5017979;28;20645;-67
2024/02/19 13:36:38;;;;;;;;;;;9.60;100.00;;;;;;5010735;28;19983;-68
2024/02/19 13:39:06;;;;;;;;;;;9.60;100.00;;;;;;5039658;28;19964;-68
2024/02/19 13:41:33;;;;;;;;;;;9.50;100.00;;;;;;5023519;28;19929;-68
2024/02/19 13:43:59;;;;;;;;;;;9.40;100.00;;;;;;5012162;28;20318;-68
2024/02/19 13:46:26;;;;;;;;;;;9.30;100.00;;;;;;4997800;28;19936;-68
2024/02/19 13:48:58;;;;;;;;;;;9.30;100.00;;;;;;4991808;28;20389;-68
2024/02/19 13:51:26;;;;;;;;;;;9.30;100.00;;;;;;5031403;28;20067;-68
2024/02/19 13:53:53;;;;;;;;;;;9.30;100.00;;;;;;5012494;28;19929;-68
2024/02/19 13:56:19;;;;;;;;;;;9.40;100.00;;;;;;5012089;28;19929;-67
2024/02/19 13:58:46;;;;;;;;;;;9.50;100.00;;;;;;5005613;28;19929;-68
2024/02/19 14:01:13;;;;;;;;;;;9.40;100.00;;;;;;5013588;28;20557;-68
2024/02/19 14:03:41;;;;;;;;;;;9.40;100.00;;;;;;5023726;28;19929;-72
2024/02/19 14:06:08;;;;;;;;;;;9.40;100.00;;;;;;4998384;28;20402;-72
2024/02/19 14:08:34;;;;;;;;;;;9.40;100.00;;;;;;5027502;28;19969;-72
2024/02/19 14:11:01;;;;;;;;;;;9.40;100.00;;;;;;5009930;28;19999;-72
2024/02/19 14:13:28;;;;;;;;;;;9.30;100.00;;;;;;5009419;28;19930;-72
2024/02/19 14:16:02;;;;;;;;;;;9.40;100.00;;;;;;5019320;28;19961;-72